Time;durP1;ratioP1;P1;durP2;ratioP2;P2;SDS_P1;SDS_P2;PMS_P1;PMS_P2;Temp;Humidity;BMP_temperature;BMP_pressure;BME280_temperature;BME280_humidity;BME280_pressure;Samples;Min_cycle;Max_cycle;Signal;HPM_P1;HPM_P2
2022/08/27 00:02:34;;;;;;;5.73;3.70;;;22.90;39.10;;;;;;10555755;28;20688;-75
2022/08/27 00:07:38;;;;;;;3.80;3.40;;;22.80;39.00;;;;;;10552908;28;20227;-76
2022/08/27 00:12:43;;;;;;;3.87;3.57;;;22.80;39.00;;;;;;10549724;28;20223;-75
2022/08/27 00:17:46;;;;;;;3.97;3.47;;;22.70;39.70;;;;;;10552951;28;20226;-75
2022/08/27 00:22:50;;;;;;;4.93;4.40;;;22.70;39.30;;;;;;10541714;28;20215;-76
2022/08/27 00:27:54;;;;;;;3.77;3.47;;;22.60;39.40;;;;;;10548304;28;20230;-75
2022/08/27 00:32:57;;;;;;;3.80;3.50;;;22.50;40.20;;;;;;10552595;28;20219;-76
2022/08/27 00:38:01;;;;;;;4.37;3.80;;;22.40;39.60;;;;;;10546455;28;20241;-76
2022/08/27 00:43:05;;;;;;;4.33;3.80;;;22.40;40.00;;;;;;10548600;28;20265;-75
2022/08/27 00:48:12;;;;;;;4.00;3.70;;;22.50;40.60;;;;;;10556159;28;20230;-75
2022/08/27 00:53:18;;;;;;;3.53;3.33;;;22.60;40.30;;;;;;10547525;28;20231;-75
2022/08/27 00:58:27;;;;;;;3.90;3.57;;;22.70;40.60;;;;;;10564838;28;20257;-75
2022/08/27 01:03:31;;;;;;;4.57;3.53;;;22.70;40.70;;;;;;10562243;28;20227;-75
2022/08/27 01:08:37;;;;;;;4.13;3.73;;;22.80;40.00;;;;;;10557746;28;20226;-75
2022/08/27 01:13:42;;;;;;;4.27;3.97;;;22.80;40.20;;;;;;10566152;28;20266;-75
2022/08/27 01:19:06;;;;;;;4.07;3.67;;;22.70;40.40;;;;;;10560847;28;20231;-75
2022/08/27 01:30:32;;;;;;;4.97;4.57;;;22.70;41.00;;;;;;10546551;27;20678;-75
2022/08/27 01:35:35;;;;;;;4.70;4.30;;;22.70;40.90;;;;;;10560291;28;20868;-75
2022/08/27 01:40:42;;;;;;;4.50;4.10;;;22.70;40.30;;;;;;10555528;28;20250;-75
2022/08/27 01:45:50;;;;;;;6.30;4.97;;;22.70;40.40;;;;;;10551462;28;20219;-75
2022/08/27 01:50:53;;;;;;;5.27;4.77;;;22.70;41.30;;;;;;10557193;28;20235;-75
2022/08/27 01:55:57;;;;;;;5.63;5.07;;;22.70;40.70;;;;;;10551996;28;20227;-75
2022/08/27 02:01:06;;;;;;;5.27;4.77;;;22.70;40.90;;;;;;10556599;28;20262;-75
2022/08/27 02:06:11;;;;;;;5.37;4.87;;;22.70;41.50;;;;;;10547787;28;20269;-75
2022/08/27 02:11:14;;;;;;;4.93;4.53;;;22.70;41.10;;;;;;10556542;28;20245;-75
2022/08/27 02:16:19;;;;;;;5.13;4.70;;;22.70;40.90;;;;;;10553905;28;20309;-75
2022/08/27 02:21:22;;;;;;;5.43;4.50;;;22.70;41.40;;;;;;10539324;27;20238;-75
2022/08/27 02:26:26;;;;;;;4.97;4.57;;;22.70;41.00;;;;;;10546408;28;20231;-75
2022/08/27 02:31:31;;;;;;;6.70;4.70;;;22.70;41.10;;;;;;10552736;28;20735;-76
2022/08/27 02:36:36;;;;;;;5.73;5.17;;;22.80;41.60;;;;;;10551652;28;20223;-76
2022/08/27 02:41:39;;;;;;;5.23;4.70;;;22.80;41.30;;;;;;10553951;28;20223;-75
2022/08/27 02:46:43;;;;;;;5.00;4.60;;;22.80;41.30;;;;;;10553952;28;20211;-76
2022/08/27 02:51:46;;;;;;;5.50;4.83;;;22.70;41.70;;;;;;10541210;28;20258;-75
2022/08/27 02:56:53;;;;;;;5.57;5.07;;;22.80;41.30;;;;;;10551521;28;20750;-75
2022/08/27 03:01:58;;;;;;;5.23;4.83;;;22.70;41.60;;;;;;10553105;28;20223;-76
2022/08/27 03:07:01;;;;;;;7.17;5.30;;;22.80;41.80;;;;;;10542540;28;20215;-75
2022/08/27 03:12:05;;;;;;;5.23;4.77;;;22.80;41.50;;;;;;10556657;28;20222;-76
2022/08/27 03:22:30;;;;;;;6.00;5.40;;;22.80;41.90;;;;;;10546100;28;20239;-75
2022/08/27 03:27:33;;;;;;;5.73;5.23;;;22.80;41.60;;;;;;10547459;28;20226;-75
2022/08/27 03:32:38;;;;;;;6.53;5.10;;;22.80;41.60;;;;;;10553566;28;20223;-75
2022/08/27 03:37:42;;;;;;;6.63;5.70;;;22.70;42.00;;;;;;10544488;28;20215;-76
2022/08/27 03:42:45;;;;;;;4.93;4.53;;;22.70;41.70;;;;;;10547140;28;20227;-75
2022/08/27 03:47:50;;;;;;;5.00;4.47;;;22.60;41.70;;;;;;10548141;28;20248;-75
2022/08/27 03:52:53;;;;;;;5.93;5.43;;;22.60;42.10;;;;;;10550860;27;20227;-75
2022/08/27 03:57:56;;;;;;;5.07;4.67;;;22.60;41.90;;;;;;10546642;28;20226;-75
2022/08/27 04:03:01;;;;;;;5.77;4.70;;;22.60;41.80;;;;;;10545532;28;20590;-75
2022/08/27 04:08:05;;;;;;;5.77;5.27;;;22.60;42.10;;;;;;10549296;28;20211;-75
2022/08/27 04:13:08;;;;;;;4.37;4.00;;;22.60;42.00;;;;;;10545902;28;20258;-74
2022/08/27 04:18:15;;;;;;;7.70;5.93;;;22.60;41.80;;;;;;10547821;28;20220;-75
2022/08/27 04:23:19;;;;;;;5.57;5.00;;;22.60;42.40;;;;;;10553540;28;20228;-75
2022/08/27 04:28:23;;;;;;;5.87;5.20;;;22.60;41.90;;;;;;10540432;28;20224;-76
2022/08/27 04:33:27;;;;;;;6.50;5.03;;;22.60;41.90;;;;;;10557754;28;20235;-76
2022/08/27 04:38:30;;;;;;;5.23;4.73;;;22.40;42.20;;;;;;10543884;28;20231;-76
2022/08/27 04:43:35;;;;;;;7.03;5.80;;;22.40;42.00;;;;;;10545548;28;20781;-76
2022/08/27 04:48:39;;;;;;;5.87;5.30;;;22.40;42.20;;;;;;10548069;28;20245;-76
2022/08/27 04:53:43;;;;;;;5.70;5.30;;;22.40;42.70;;;;;;10552561;28;20258;-76
2022/08/27 04:58:46;;;;;;;6.13;5.53;;;22.30;42.40;;;;;;10550200;28;20706;-76
2022/08/27 05:03:51;;;;;;;6.70;6.10;;;22.20;42.40;;;;;;10544152;28;20223;-75
2022/08/27 05:08:56;;;;;;;6.97;6.27;;;22.20;43.30;;;;;;10544289;28;20707;-75
2022/08/27 05:13:59;;;;;;;6.63;6.03;;;22.10;43.00;;;;;;10546556;28;20702;-76
2022/08/27 05:19:07;;;;;;;6.40;5.80;;;22.10;43.10;;;;;;10544736;28;20219;-74
2022/08/27 05:24:10;;;;;;;6.83;6.23;;;22.00;43.80;;;;;;10550854;28;20780;-75
2022/08/27 05:29:13;;;;;;;6.83;6.13;;;21.90;43.30;;;;;;10543926;28;20222;-75
2022/08/27 05:34:18;;;;;;;7.63;6.67;;;21.80;43.60;;;;;;10542533;28;20223;-76
2022/08/27 05:39:29;;;;;;;7.27;6.47;;;21.80;44.60;;;;;;10542012;28;20235;-75
2022/08/27 05:44:32;;;;;;;6.57;5.97;;;21.80;44.00;;;;;;10551685;28;20239;-75
2022/08/27 05:49:45;;;;;;;7.50;6.67;;;21.80;44.20;;;;;;10560198;28;20226;-76
2022/08/27 05:54:48;;;;;;;7.40;6.67;;;21.80;44.90;;;;;;10561585;28;20215;-75
2022/08/27 06:05:19;;;;;;;7.13;6.53;;;21.90;44.60;;;;;;10551096;28;20522;-75
2022/08/27 06:10:23;;;;;;;7.73;6.97;;;22.00;45.30;;;;;;10549610;28;20243;-75
2022/08/27 06:15:27;;;;;;;7.80;7.10;;;22.00;44.90;;;;;;10555992;28;20231;-75
2022/08/27 06:20:32;;;;;;;6.40;5.80;;;22.10;44.80;;;;;;10552367;28;20230;-75
2022/08/27 06:25:39;;;;;;;7.10;6.60;;;22.20;45.40;;;;;;10545387;28;20627;-76
2022/08/27 06:30:42;;;;;;;7.90;6.70;;;22.20;44.90;;;;;;10552800;28;20238;-75
2022/08/27 06:35:47;;;;;;;6.37;5.80;;;22.30;45.10;;;;;;10544653;28;20218;-74
2022/08/27 06:40:50;;;;;;;8.40;5.47;;;22.40;45.30;;;;;;10547153;28;20223;-74
2022/08/27 06:45:53;;;;;;;6.37;5.37;;;22.40;44.90;;;;;;10552188;28;20227;-74
2022/08/27 06:50:58;;;;;;;5.23;4.73;;;22.50;44.80;;;;;;10553154;28;20245;-75
2022/08/27 06:56:02;;;;;;;4.83;4.43;;;22.60;45.00;;;;;;10556671;28;20229;-75
2022/08/27 07:01:13;;;;;;;5.00;4.60;;;22.80;44.80;;;;;;10548767;28;20231;-75
2022/08/27 07:06:18;;;;;;;4.83;4.40;;;22.80;44.90;;;;;;10559208;28;20302;-76
2022/08/27 07:11:21;;;;;;;5.63;5.13;;;22.90;44.80;;;;;;10551541;28;20230;-75
2022/08/27 07:16:26;;;;;;;5.20;4.70;;;23.00;44.20;;;;;;10547632;28;20243;-76
2022/08/27 07:21:31;;;;;;;5.60;5.00;;;23.10;44.50;;;;;;10552979;28;20238;-75
2022/08/27 07:26:38;;;;;;;4.57;4.27;;;23.20;44.40;;;;;;10541361;28;20313;-75
2022/08/27 07:31:42;;;;;;;4.30;3.93;;;23.20;44.70;;;;;;10541393;28;20227;-75
2022/08/27 07:36:47;;;;;;;4.83;4.43;;;23.30;43.70;;;;;;10542555;28;20229;-75
2022/08/27 07:47:10;;;;;;;5.33;4.87;;;23.20;43.80;;;;;;10545690;28;20953;-74
2022/08/27 07:52:15;;;;;;;5.17;4.63;;;23.30;43.70;;;;;;10541875;28;20399;-75
2022/08/27 07:57:18;;;;;;;5.87;4.90;;;23.30;43.90;;;;;;10547577;28;20223;-75
2022/08/27 08:02:21;;;;;;;4.93;4.53;;;23.30;43.50;;;;;;10538066;28;20956;-75
2022/08/27 08:07:27;;;;;;;5.10;4.70;;;23.40;43.70;;;;;;10541050;28;20349;-74
2022/08/27 08:12:30;;;;;;;5.63;4.43;;;23.40;43.80;;;;;;10538944;28;20265;-75
2022/08/27 08:17:33;;;;;;;5.40;4.90;;;23.50;43.70;;;;;;10544629;28;20238;-75
2022/08/27 08:22:38;;;;;;;4.90;4.50;;;23.50;43.70;;;;;;10543080;28;20561;-75
2022/08/27 08:27:42;;;;;;;5.07;4.57;;;23.60;44.10;;;;;;10544309;28;20703;-75
2022/08/27 08:32:45;;;;;;;4.90;4.50;;;23.60;44.10;;;;;;10544443;28;20647;-75
2022/08/27 08:37:50;;;;;;;5.77;5.27;;;23.70;44.10;;;;;;10547549;28;20238;-75
2022/08/27 08:42:55;;;;;;;5.57;5.00;;;23.70;44.50;;;;;;10540082;28;20250;-75
2022/08/27 08:48:04;;;;;;;5.93;5.40;;;23.70;44.30;;;;;;10543496;28;20222;-75
2022/08/27 08:53:14;;;;;;;5.70;5.20;;;23.80;44.50;;;;;;10540248;28;20334;-75
2022/08/27 08:58:26;;;;;;;5.80;5.30;;;23.80;45.10;;;;;;10542604;28;20224;-75
2022/08/27 09:03:35;;;;;;;5.40;4.90;;;23.80;44.70;;;;;;10538420;28;20235;-75
2022/08/27 09:08:42;;;;;;;6.93;5.40;;;23.90;44.70;;;;;;10540416;28;20242;-75
2022/08/27 09:13:49;;;;;;;5.70;5.20;;;23.90;44.70;;;;;;10537811;28;20237;-76
2022/08/27 09:18:53;;;;;;;6.00;5.43;;;23.90;44.90;;;;;;10553546;28;20215;-76
2022/08/27 09:24:05;;;;;;;5.47;5.07;;;23.90;44.30;;;;;;10545200;28;20215;-75
2022/08/27 09:29:19;;;;;;;5.33;4.93;;;23.90;44.50;;;;;;10548157;28;20579;-75
2022/08/27 09:34:23;;;;;;;5.90;5.23;;;23.90;44.20;;;;;;10551199;28;20235;-75
2022/08/27 09:39:35;;;;;;;5.23;4.83;;;23.90;44.50;;;;;;10548451;28;20859;-75
2022/08/27 09:44:47;;;;;;;5.37;4.97;;;23.90;45.00;;;;;;10546607;28;20604;-75
2022/08/27 09:50:07;;;;;;;5.30;4.80;;;23.90;44.70;;;;;;10550821;28;20218;-75
2022/08/27 09:55:13;;;;;;;5.33;4.93;;;24.00;44.60;;;;;;10545566;28;20222;-75
2022/08/27 10:00:17;;;;;;;5.70;5.20;;;24.10;44.50;;;;;;10550395;28;20327;-75
2022/08/27 10:05:27;;;;;;;5.73;5.23;;;24.10;44.30;;;;;;10549221;28;20230;-75
2022/08/27 10:10:43;;;;;;;5.37;4.97;;;24.20;44.50;;;;;;10542384;28;20231;-75
2022/08/27 10:15:57;;;;;;;5.10;4.60;;;24.30;44.70;;;;;;10539677;28;20718;-75
2022/08/27 10:21:07;;;;;;;5.37;4.87;;;24.40;45.10;;;;;;10546399;28;20227;-75
2022/08/27 10:26:20;;;;;;;5.83;5.33;;;24.60;44.30;;;;;;10541155;28;20707;-75
2022/08/27 10:31:31;;;;;;;5.57;5.00;;;24.70;44.00;;;;;;10545889;28;20703;-75
2022/08/27 10:36:46;;;;;;;5.27;4.67;;;24.90;42.80;;;;;;10544827;28;20626;-75
2022/08/27 10:41:59;;;;;;;5.30;4.80;;;25.00;42.70;;;;;;10540758;28;20223;-75
2022/08/27 10:47:14;;;;;;;5.00;4.50;;;25.20;42.20;;;;;;10543494;28;20750;-75
2022/08/27 10:52:22;;;;;;;5.47;4.97;;;25.30;41.60;;;;;;10546438;28;20228;-75
2022/08/27 10:57:40;;;;;;;5.00;4.60;;;25.40;42.20;;;;;;10545009;28;20219;-75
2022/08/27 11:03:05;;;;;;;5.93;4.60;;;25.50;42.30;;;;;;10543881;28;20230;-75
2022/08/27 11:08:16;;;;;;;5.20;4.70;;;25.70;41.70;;;;;;10542953;28;20232;-75
2022/08/27 11:13:31;;;;;;;5.80;4.77;;;25.70;41.30;;;;;;10543892;28;20227;-75
2022/08/27 11:18:42;;;;;;;5.20;4.70;;;25.80;41.40;;;;;;10542448;28;20242;-75
2022/08/27 11:23:49;;;;;;;5.37;4.97;;;25.90;41.50;;;;;;10540970;28;20223;-75
2022/08/27 11:28:58;;;;;;;5.40;4.90;;;26.00;41.60;;;;;;10539672;28;20230;-75
2022/08/27 11:34:07;;;;;;;6.33;5.20;;;26.10;41.60;;;;;;10544815;28;20388;-75
2022/08/27 11:39:25;;;;;;;5.57;5.07;;;26.20;40.90;;;;;;10537166;28;20230;-75
2022/08/27 11:44:29;;;;;;;5.50;5.00;;;26.30;40.40;;;;;;10545646;28;20239;-75
2022/08/27 11:49:42;;;;;;;6.10;5.60;;;26.40;40.10;;;;;;10543825;28;20223;-75
2022/08/27 11:54:50;;;;;;;5.93;5.37;;;26.40;39.60;;;;;;10541508;28;20230;-75
2022/08/27 11:59:55;;;;;;;6.07;5.50;;;26.50;39.30;;;;;;10540957;28;20226;-75
2022/08/27 12:05:09;;;;;;;6.20;5.70;;;26.60;39.20;;;;;;10538105;28;20235;-75
2022/08/27 12:10:37;;;;;;;6.10;4.87;;;26.70;38.40;;;;;;10544072;28;20222;-75
2022/08/27 12:15:57;;;;;;;5.77;5.27;;;26.70;39.50;;;;;;10542193;28;20223;-75
2022/08/27 12:21:15;;;;;;;5.80;5.30;;;26.90;39.00;;;;;;10540638;28;20252;-75
2022/08/27 12:26:32;;;;;;;6.03;5.53;;;27.00;38.20;;;;;;10541910;28;20229;-75
2022/08/27 12:31:40;;;;;;;5.60;5.10;;;27.10;39.30;;;;;;10541391;28;20234;-75
2022/08/27 12:36:47;;;;;;;5.20;4.70;;;27.20;38.80;;;;;;10541990;28;20299;-75
2022/08/27 12:41:52;;;;;;;4.00;3.70;;;27.30;38.00;;;;;;10543723;28;20231;-75
2022/08/27 12:47:00;;;;;;;3.00;2.90;;;27.40;37.40;;;;;;10541220;28;20219;-75
2022/08/27 12:52:18;;;;;;;2.87;2.67;;;27.30;35.70;;;;;;10544401;28;20346;-75
2022/08/27 12:57:30;;;;;;;2.73;2.50;;;27.30;35.90;;;;;;10549498;28;20237;-75
2022/08/27 13:03:05;;;;;;;2.63;2.43;;;27.30;32.90;;;;;;10552039;28;20234;-75
2022/08/27 13:08:20;;;;;;;3.10;2.90;;;27.30;33.50;;;;;;10549164;28;20318;-75
2022/08/27 13:13:25;;;;;;;3.60;3.30;;;27.30;33.10;;;;;;10550079;28;20246;-75
2022/08/27 13:18:30;;;;;;;3.97;3.77;;;27.40;35.10;;;;;;10546721;28;20232;-75
2022/08/27 13:23:34;;;;;;;4.20;3.90;;;27.40;35.60;;;;;;10541248;28;20231;-75
2022/08/27 13:28:40;;;;;;;4.73;4.30;;;27.40;35.90;;;;;;10547931;28;20219;-75
2022/08/27 13:33:45;;;;;;;4.90;4.20;;;27.30;35.00;;;;;;10546394;28;20223;-75
2022/08/27 13:38:49;;;;;;;4.77;4.37;;;27.30;35.20;;;;;;10545360;28;20952;-75
2022/08/27 13:43:52;;;;;;;4.50;4.10;;;27.30;35.90;;;;;;10545635;28;20302;-75
2022/08/27 13:49:02;;;;;;;4.07;3.77;;;27.40;35.70;;;;;;10552025;28;20218;-75
2022/08/27 13:54:14;;;;;;;4.60;4.20;;;27.40;34.60;;;;;;10546416;28;20224;-75
2022/08/27 13:59:26;;;;;;;5.00;4.60;;;27.40;33.50;;;;;;10547784;28;20224;-75
2022/08/27 14:04:38;;;;;;;5.83;5.20;;;27.40;33.80;;;;;;10546769;28;20719;-75
2022/08/27 14:09:45;;;;;;;5.33;4.83;;;27.40;32.80;;;;;;10545433;28;20709;-75
2022/08/27 14:14:57;;;;;;;6.30;5.57;;;27.40;33.10;;;;;;10542241;28;20221;-75
2022/08/27 14:20:05;;;;;;;6.40;5.90;;;27.40;34.40;;;;;;10543928;28;20581;-75
2022/08/27 14:25:12;;;;;;;7.03;6.40;;;27.40;33.90;;;;;;10542475;28;20287;-75
2022/08/27 14:30:17;;;;;;;6.57;6.07;;;27.40;34.60;;;;;;10544988;28;20235;-75
2022/08/27 14:35:21;;;;;;;7.77;6.40;;;27.50;34.50;;;;;;10547128;28;20676;-75
2022/08/27 14:40:27;;;;;;;6.63;6.10;;;27.50;34.00;;;;;;10543792;28;20235;-75
2022/08/27 14:45:32;;;;;;;8.00;6.50;;;27.50;34.30;;;;;;10540640;28;20235;-75
2022/08/27 14:50:37;;;;;;;7.17;6.57;;;27.50;34.00;;;;;;10543356;28;20232;-75
2022/08/27 14:55:41;;;;;;;6.07;5.57;;;27.40;33.70;;;;;;10545561;28;20223;-75
2022/08/27 15:00:50;;;;;;;6.47;5.97;;;27.30;33.90;;;;;;10540624;28;20224;-75
2022/08/27 15:05:56;;;;;;;6.47;5.87;;;27.20;33.90;;;;;;10548128;28;20715;-75
2022/08/27 15:11:00;;;;;;;6.93;6.43;;;27.20;33.80;;;;;;10541965;28;20216;-75
2022/08/27 15:16:03;;;;;;;7.30;6.70;;;27.10;34.40;;;;;;10542007;28;20665;-75
2022/08/27 15:21:08;;;;;;;8.10;7.40;;;27.10;34.60;;;;;;10544033;28;20303;-75
2022/08/27 15:26:11;;;;;;;7.63;7.03;;;27.10;34.30;;;;;;10544405;28;20795;-75
2022/08/27 15:31:15;;;;;;;7.90;7.10;;;27.10;34.80;;;;;;10545518;28;20226;-75
2022/08/27 15:36:20;;;;;;;7.10;6.60;;;27.10;34.90;;;;;;10543899;28;20326;-75
2022/08/27 15:41:23;;;;;;;6.70;6.20;;;27.00;34.90;;;;;;10538566;28;20230;-75
2022/08/27 15:46:31;;;;;;;7.13;6.53;;;27.00;35.20;;;;;;10543130;28;20260;-75
2022/08/27 15:51:36;;;;;;;7.67;6.97;;;27.00;35.40;;;;;;10543861;28;20235;-75
2022/08/27 15:56:40;;;;;;;7.73;7.13;;;27.00;35.40;;;;;;10541177;28;20223;-75
2022/08/27 16:01:43;;;;;;;7.83;7.13;;;27.00;35.50;;;;;;10547147;28;20242;-75
2022/08/27 16:06:49;;;;;;;7.30;6.70;;;27.00;35.70;;;;;;10543026;28;20219;-75
2022/08/27 16:11:52;;;;;;;7.77;7.17;;;27.00;35.80;;;;;;10541221;28;20246;-75
2022/08/27 16:16:57;;;;;;;7.70;7.10;;;27.00;35.90;;;;;;10544109;28;20230;-75
2022/08/27 16:22:02;;;;;;;8.67;7.87;;;27.00;36.10;;;;;;10537846;28;20615;-75
2022/08/27 16:27:06;;;;;;;8.43;7.67;;;27.00;36.30;;;;;;10540049;28;20216;-75
2022/08/27 16:32:14;;;;;;;8.30;7.27;;;26.90;36.30;;;;;;10540352;28;20219;-75
2022/08/27 16:37:18;;;;;;;7.77;7.03;;;26.90;36.60;;;;;;10541414;28;20219;-75
2022/08/27 16:42:22;;;;;;;6.63;6.13;;;26.90;36.50;;;;;;10535866;28;20261;-75
2022/08/27 16:47:25;;;;;;;7.40;6.80;;;26.90;35.90;;;;;;10536445;28;20227;-75
2022/08/27 16:52:30;;;;;;;7.13;6.53;;;26.90;36.40;;;;;;10537131;28;20254;-75
2022/08/27 16:57:33;;;;;;;7.47;6.87;;;26.80;36.60;;;;;;10536473;28;20228;-74
2022/08/27 17:02:36;;;;;;;7.53;6.47;;;26.70;36.60;;;;;;10534787;28;20637;-75
2022/08/27 17:07:41;;;;;;;7.13;6.53;;;26.60;36.70;;;;;;10544744;28;20219;-75
2022/08/27 17:12:50;;;;;;;6.60;6.10;;;26.50;36.60;;;;;;10540436;28;20239;-75
2022/08/27 17:17:53;;;;;;;6.70;6.20;;;26.40;36.50;;;;;;10538655;28;20238;-75
2022/08/27 17:22:58;;;;;;;6.10;5.60;;;26.30;36.60;;;;;;10539313;28;20306;-75
2022/08/27 17:28:01;;;;;;;6.47;5.87;;;26.20;36.80;;;;;;10543103;28;20829;-75
2022/08/27 17:33:06;;;;;;;6.50;6.00;;;26.20;36.80;;;;;;10538642;28;20232;-75
2022/08/27 17:38:10;;;;;;;6.70;6.13;;;26.10;36.90;;;;;;10545575;28;20219;-75
2022/08/27 17:43:14;;;;;;;6.97;6.40;;;26.00;37.40;;;;;;10548654;28;20230;-75
2022/08/27 17:48:23;;;;;;;6.90;6.40;;;25.80;37.30;;;;;;10544363;28;20230;-75
2022/08/27 17:53:30;;;;;;;7.00;6.40;;;25.70;37.40;;;;;;10545333;28;20238;-75
2022/08/27 17:58:33;;;;;;;8.80;6.70;;;25.70;38.10;;;;;;10545238;28;20226;-75
2022/08/27 18:03:37;;;;;;;7.30;6.43;;;25.60;37.80;;;;;;10544820;28;20280;-75
2022/08/27 18:08:51;;;;;;;7.83;7.13;;;25.60;38.00;;;;;;10545624;28;21098;-75
2022/08/27 18:13:57;;;;;;;7.33;6.73;;;25.50;38.40;;;;;;10543420;28;20240;-75
2022/08/27 18:19:07;;;;;;;7.50;6.90;;;25.40;38.50;;;;;;10546806;28;20310;-75
2022/08/27 18:24:12;;;;;;;7.23;6.53;;;25.40;38.40;;;;;;10543226;28;20228;-74
2022/08/27 18:29:15;;;;;;;7.43;6.83;;;25.40;38.90;;;;;;10552340;28;20222;-75
2022/08/27 18:34:18;;;;;;;6.50;6.00;;;25.40;38.70;;;;;;10549311;28;20234;-74
2022/08/27 18:39:24;;;;;;;6.50;5.90;;;25.40;38.70;;;;;;10548020;28;20224;-75
2022/08/27 18:44:28;;;;;;;5.27;4.93;;;25.40;38.90;;;;;;10544085;28;20239;-74
2022/08/27 18:49:31;;;;;;;4.03;3.73;;;25.40;38.60;;;;;;10545471;28;20813;-74
2022/08/27 18:54:35;;;;;;;3.47;3.27;;;25.40;38.20;;;;;;10548338;28;20575;-75
2022/08/27 18:59:39;;;;;;;3.17;2.97;;;25.40;38.10;;;;;;10543184;28;20226;-75
2022/08/27 19:04:42;;;;;;;3.00;2.80;;;25.30;38.00;;;;;;10540844;28;20223;-75
2022/08/27 19:09:46;;;;;;;4.23;3.67;;;25.30;38.30;;;;;;10542609;28;20223;-75
2022/08/27 19:14:50;;;;;;;3.97;3.60;;;25.30;38.40;;;;;;10549552;28;20314;-75
2022/08/27 19:19:54;;;;;;;3.93;3.67;;;25.30;38.60;;;;;;10546862;28;20224;-74
2022/08/27 19:24:59;;;;;;;3.90;3.60;;;25.30;38.70;;;;;;10541725;28;20223;-75
2022/08/27 19:30:03;;;;;;;3.57;3.33;;;25.30;38.80;;;;;;10542986;28;20297;-75
2022/08/27 19:35:07;;;;;;;3.00;2.80;;;25.20;38.30;;;;;;10542677;28;20223;-74
2022/08/27 19:40:12;;;;;;;2.80;2.60;;;25.10;38.30;;;;;;10545197;28;20234;-74
2022/08/27 19:45:16;;;;;;;2.77;2.57;;;25.00;38.50;;;;;;10547424;28;20230;-74
2022/08/27 19:50:26;;;;;;;2.20;2.10;;;24.90;38.40;;;;;;10541807;28;20234;-75
2022/08/27 19:55:31;;;;;;;2.50;2.40;;;24.90;38.50;;;;;;10542048;28;20226;-75
2022/08/27 20:00:34;;;;;;;3.00;2.77;;;24.90;38.80;;;;;;10541700;28;20723;-75
2022/08/27 20:05:38;;;;;;;3.00;2.80;;;24.90;38.70;;;;;;10547302;28;20541;-75
2022/08/27 20:10:42;;;;;;;3.10;2.90;;;24.90;38.80;;;;;;10541882;28;21174;-75
2022/08/27 20:15:45;;;;;;;4.33;4.00;;;24.80;39.20;;;;;;10543367;28;20234;-74
2022/08/27 20:20:50;;;;;;;5.03;4.73;;;24.90;39.20;;;;;;10542156;28;20223;-75
2022/08/27 20:25:54;;;;;;;4.77;4.37;;;24.80;39.40;;;;;;10544573;28;20233;-75
2022/08/27 20:31:03;;;;;;;5.33;4.93;;;24.80;40.20;;;;;;10539998;28;20226;-75
2022/08/27 20:36:07;;;;;;;5.30;4.90;;;24.80;40.20;;;;;;10542830;28;20596;-75
2022/08/27 20:41:12;;;;;;;4.60;4.30;;;24.70;40.60;;;;;;10536626;28;20226;-76
2022/08/27 20:46:16;;;;;;;4.77;4.37;;;24.70;40.60;;;;;;10544422;28;20227;-75
2022/08/27 20:51:20;;;;;;;4.67;4.37;;;24.70;40.70;;;;;;10542079;28;20733;-75
2022/08/27 20:56:24;;;;;;;4.60;4.20;;;24.60;40.50;;;;;;10543449;28;20321;-75
2022/08/27 21:01:28;;;;;;;4.57;4.23;;;24.60;40.60;;;;;;10537381;28;20235;-75
2022/08/27 21:06:31;;;;;;;4.63;4.27;;;24.60;40.50;;;;;;10537862;28;20223;-75
2022/08/27 21:11:36;;;;;;;5.10;4.70;;;24.60;40.50;;;;;;10542628;28;20231;-75
2022/08/27 21:16:40;;;;;;;4.23;3.93;;;24.50;41.20;;;;;;10554078;28;20223;-75
2022/08/27 21:21:43;;;;;;;4.73;4.40;;;24.40;40.50;;;;;;10548867;28;20600;-75
2022/08/27 21:26:48;;;;;;;4.20;3.90;;;24.40;40.90;;;;;;10549607;28;20230;-75
2022/08/27 21:31:51;;;;;;;4.50;4.20;;;24.40;41.70;;;;;;10552304;28;20223;-75
2022/08/27 21:36:54;;;;;;;4.90;4.40;;;24.40;41.10;;;;;;10547182;28;20462;-75
2022/08/27 21:42:00;;;;;;;4.27;3.90;;;24.40;41.20;;;;;;10553215;28;20230;-75
2022/08/27 21:47:04;;;;;;;4.73;4.43;;;24.30;41.50;;;;;;10549742;28;20307;-75
2022/08/27 21:52:07;;;;;;;5.57;4.67;;;24.30;42.20;;;;;;10546100;28;20342;-75
2022/08/27 21:57:14;;;;;;;5.17;4.70;;;24.30;41.50;;;;;;10549032;28;20218;-75
2022/08/27 22:02:19;;;;;;;5.30;4.90;;;24.30;42.30;;;;;;10547330;28;20222;-75
2022/08/27 22:07:41;;;;;;;5.73;5.23;;;24.30;42.30;;;;;;10550686;28;20233;-75
2022/08/27 22:12:46;;;;;;;4.93;4.53;;;24.20;41.80;;;;;;10548730;28;20241;-75
2022/08/27 22:17:49;;;;;;;5.10;4.63;;;24.10;42.40;;;;;;10548021;28;20654;-75
2022/08/27 22:22:53;;;;;;;5.07;4.67;;;24.00;42.10;;;;;;10547174;28;20695;-75
2022/08/27 22:27:58;;;;;;;5.40;5.00;;;24.00;42.40;;;;;;10547003;28;20223;-75
2022/08/27 22:33:01;;;;;;;5.67;5.20;;;23.90;43.10;;;;;;10541733;28;20223;-75
2022/08/27 22:38:05;;;;;;;5.63;5.23;;;23.90;42.80;;;;;;10548975;28;20222;-75
2022/08/27 22:43:09;;;;;;;5.83;5.10;;;23.80;42.90;;;;;;10549069;28;20793;-75
2022/08/27 22:48:13;;;;;;;5.00;4.70;;;23.70;43.40;;;;;;10547530;28;20222;-75
2022/08/27 22:53:16;;;;;;;5.50;5.00;;;23.60;43.00;;;;;;10547254;28;20226;-75
2022/08/27 22:58:21;;;;;;;5.27;4.87;;;23.60;43.30;;;;;;10547014;28;20342;-75
2022/08/27 23:03:26;;;;;;;4.93;4.63;;;23.50;43.80;;;;;;10548444;28;20238;-75
2022/08/27 23:08:30;;;;;;;5.23;4.73;;;23.50;43.30;;;;;;10545494;28;20702;-75
2022/08/27 23:13:35;;;;;;;4.53;4.23;;;23.50;43.50;;;;;;10543317;28;20232;-76
2022/08/27 23:18:38;;;;;;;5.23;4.57;;;23.40;44.00;;;;;;10547305;28;20219;-75
2022/08/27 23:23:41;;;;;;;5.07;4.60;;;23.40;43.70;;;;;;10537930;28;20247;-76
2022/08/27 23:28:46;;;;;;;5.33;4.83;;;23.40;43.70;;;;;;10546896;28;20215;-75
2022/08/27 23:33:51;;;;;;;4.83;4.53;;;23.50;44.40;;;;;;10541313;28;20215;-75
2022/08/27 23:38:54;;;;;;;4.80;4.50;;;23.50;44.40;;;;;;10542642;28;20222;-75
2022/08/27 23:43:58;;;;;;;5.03;4.63;;;23.40;43.70;;;;;;10542508;28;20219;-75
2022/08/27 23:49:01;;;;;;;5.30;4.80;;;23.40;44.10;;;;;;10548104;28;20214;-75
2022/08/27 23:54:05;;;;;;;5.40;5.00;;;23.40;43.90;;;;;;10544499;28;20593;-75
2022/08/27 23:59:09;;;;;;;5.10;4.70;;;23.30;43.80;;;;;;10542205;28;20734;-75
